Eldridge, Alabama
Current Conditions -  °F | °C
As of 5:55 AM on Thursday 27 Nov 2014 (Local Time) from KJFX Reporting Station
Scattered Clouds Scattered Clouds  
Wind Chill: 31°   Ceiling: Unl
Heat Index: 36°   Visibility: 10mi
Dew Point: 32°   Wind: 6mph
Humidity: 87%   Direction: 290°WNW
Pressure: 30.3"   Gusts: NA
Location:  33.92°N, 87.62°W
Report Text: KJFX 271155Z AUTO 29005KT 10SM SCT047 02/00 A3030 RMK A02 P-128
Loading
Personal Weather Stations






























Interactive Weather Map New forecast layout! Learn more

10-Day Weather Forecast

Advertisements
Track Severe Weather on mobile